sensor_id;sensor_type;location;lat;lon;timestamp;P1;durP1;ratioP1;P2;durP2;ratioP2
21822;SDS011;11074;48.596;9.238;2022-07-10T00:00:37;4.57;;;2.80;;
21822;SDS011;11074;48.596;9.238;2022-07-10T00:03:03;2.72;;;2.08;;
21822;SDS011;11074;48.596;9.238;2022-07-10T00:05:30;4.88;;;2.67;;
21822;SDS011;11074;48.596;9.238;2022-07-10T00:07:56;4.13;;;2.92;;
21822;SDS011;11074;48.596;9.238;2022-07-10T00:10:22;3.95;;;2.80;;
21822;SDS011;11074;48.596;9.238;2022-07-10T00:12:51;4.35;;;2.80;;
21822;SDS011;11074;48.596;9.238;2022-07-10T00:15:17;3.13;;;2.72;;
21822;SDS011;11074;48.596;9.238;2022-07-10T00:17:44;5.07;;;2.70;;
21822;SDS011;11074;48.596;9.238;2022-07-10T00:20:11;3.63;;;2.50;;
21822;SDS011;11074;48.596;9.238;2022-07-10T00:22:38;4.85;;;2.65;;
21822;SDS011;11074;48.596;9.238;2022-07-10T00:25:06;3.88;;;2.92;;
21822;SDS011;11074;48.596;9.238;2022-07-10T00:27:35;4.35;;;2.92;;
21822;SDS011;11074;48.596;9.238;2022-07-10T00:30:01;3.63;;;3.05;;
21822;SDS011;11074;48.596;9.238;2022-07-10T00:32:27;4.30;;;2.80;;
21822;SDS011;11074;48.596;9.238;2022-07-10T00:34:53;4.63;;;3.00;;
21822;SDS011;11074;48.596;9.238;2022-07-10T00:37:19;3.53;;;2.58;;
21822;SDS011;11074;48.596;9.238;2022-07-10T00:39:46;4.07;;;2.90;;
21822;SDS011;11074;48.596;9.238;2022-07-10T00:42:13;3.45;;;2.70;;
21822;SDS011;11074;48.596;9.238;2022-07-10T00:44:43;4.35;;;2.78;;
21822;SDS011;11074;48.596;9.238;2022-07-10T00:47:09;4.05;;;3.05;;
21822;SDS011;11074;48.596;9.238;2022-07-10T00:49:37;3.22;;;2.83;;
21822;SDS011;11074;48.596;9.238;2022-07-10T00:52:06;4.00;;;2.85;;
21822;SDS011;11074;48.596;9.238;2022-07-10T00:54:35;3.80;;;2.95;;
21822;SDS011;11074;48.596;9.238;2022-07-10T00:57:03;4.55;;;3.15;;
21822;SDS011;11074;48.596;9.238;2022-07-10T00:59:31;5.10;;;3.20;;
21822;SDS011;11074;48.596;9.238;2022-07-10T01:01:57;4.15;;;3.17;;
21822;SDS011;11074;48.596;9.238;2022-07-10T01:04:24;5.88;;;2.80;;
21822;SDS011;11074;48.596;9.238;2022-07-10T01:06:49;4.28;;;2.97;;
21822;SDS011;11074;48.596;9.238;2022-07-10T01:09:15;4.18;;;3.00;;
21822;SDS011;11074;48.596;9.238;2022-07-10T01:11:41;4.25;;;2.80;;
21822;SDS011;11074;48.596;9.238;2022-07-10T01:14:08;4.22;;;3.00;;
21822;SDS011;11074;48.596;9.238;2022-07-10T01:16:35;4.40;;;3.28;;
21822;SDS011;11074;48.596;9.238;2022-07-10T01:19:02;4.30;;;3.30;;
21822;SDS011;11074;48.596;9.238;2022-07-10T01:21:29;4.70;;;3.08;;
21822;SDS011;11074;48.596;9.238;2022-07-10T01:23:58;4.38;;;3.15;;
21822;SDS011;11074;48.596;9.238;2022-07-10T01:26:28;5.47;;;3.10;;
21822;SDS011;11074;48.596;9.238;2022-07-10T01:28:54;4.68;;;3.00;;
21822;SDS011;11074;48.596;9.238;2022-07-10T01:31:26;4.45;;;3.13;;
21822;SDS011;11074;48.596;9.238;2022-07-10T01:33:54;4.32;;;3.30;;
21822;SDS011;11074;48.596;9.238;2022-07-10T01:36:21;4.97;;;2.90;;
21822;SDS011;11074;48.596;9.238;2022-07-10T01:38:47;3.63;;;3.15;;
21822;SDS011;11074;48.596;9.238;2022-07-10T01:41:16;3.67;;;3.05;;
21822;SDS011;11074;48.596;9.238;2022-07-10T01:43:42;6.07;;;3.00;;
21822;SDS011;11074;48.596;9.238;2022-07-10T01:46:10;4.45;;;3.25;;
21822;SDS011;11074;48.596;9.238;2022-07-10T01:48:37;5.18;;;3.30;;
21822;SDS011;11074;48.596;9.238;2022-07-10T01:51:07;4.57;;;3.28;;
21822;SDS011;11074;48.596;9.238;2022-07-10T01:53:35;4.95;;;2.85;;
21822;SDS011;11074;48.596;9.238;2022-07-10T01:56:03;3.63;;;2.95;;
21822;SDS011;11074;48.596;9.238;2022-07-10T01:58:33;3.00;;;2.70;;
21822;SDS011;11074;48.596;9.238;2022-07-10T02:00:59;5.15;;;2.70;;
21822;SDS011;11074;48.596;9.238;2022-07-10T02:03:26;3.72;;;2.92;;
21822;SDS011;11074;48.596;9.238;2022-07-10T02:06:10;3.00;;;2.70;;
21822;SDS011;11074;48.596;9.238;2022-07-10T02:08:36;4.32;;;2.75;;
21822;SDS011;11074;48.596;9.238;2022-07-10T02:11:02;3.42;;;2.88;;
21822;SDS011;11074;48.596;9.238;2022-07-10T02:13:27;4.38;;;3.00;;
21822;SDS011;11074;48.596;9.238;2022-07-10T02:15:54;4.15;;;2.67;;
21822;SDS011;11074;48.596;9.238;2022-07-10T02:18:20;3.72;;;2.97;;
21822;SDS011;11074;48.596;9.238;2022-07-10T02:20:47;3.40;;;2.90;;
21822;SDS011;11074;48.596;9.238;2022-07-10T02:23:13;3.53;;;2.58;;
21822;SDS011;11074;48.596;9.238;2022-07-10T02:25:39;3.53;;;2.97;;
21822;SDS011;11074;48.596;9.238;2022-07-10T02:28:05;5.07;;;2.85;;
21822;SDS011;11074;48.596;9.238;2022-07-10T02:30:33;3.88;;;2.80;;
21822;SDS011;11074;48.596;9.238;2022-07-10T02:32:58;4.13;;;2.80;;
21822;SDS011;11074;48.596;9.238;2022-07-10T02:35:24;4.68;;;3.20;;
21822;SDS011;11074;48.596;9.238;2022-07-10T02:37:50;4.57;;;3.05;;
21822;SDS011;11074;48.596;9.238;2022-07-10T02:40:16;4.40;;;2.70;;
21822;SDS011;11074;48.596;9.238;2022-07-10T02:42:42;6.63;;;3.47;;
21822;SDS011;11074;48.596;9.238;2022-07-10T02:45:08;2.97;;;2.60;;
21822;SDS011;11074;48.596;9.238;2022-07-10T02:47:34;3.42;;;2.30;;
21822;SDS011;11074;48.596;9.238;2022-07-10T02:49:59;4.18;;;2.80;;
21822;SDS011;11074;48.596;9.238;2022-07-10T02:52:26;3.25;;;2.80;;
21822;SDS011;11074;48.596;9.238;2022-07-10T02:54:52;3.35;;;2.90;;
21822;SDS011;11074;48.596;9.238;2022-07-10T02:57:18;3.35;;;2.83;;
21822;SDS011;11074;48.596;9.238;2022-07-10T02:59:43;5.60;;;3.75;;
21822;SDS011;11074;48.596;9.238;2022-07-10T03:02:09;5.68;;;3.35;;
21822;SDS011;11074;48.596;9.238;2022-07-10T03:04:35;3.63;;;2.80;;
21822;SDS011;11074;48.596;9.238;2022-07-10T03:07:01;6.03;;;3.28;;
21822;SDS011;11074;48.596;9.238;2022-07-10T03:09:26;4.60;;;2.80;;
21822;SDS011;11074;48.596;9.238;2022-07-10T03:11:52;5.13;;;3.38;;
21822;SDS011;11074;48.596;9.238;2022-07-10T03:14:18;4.40;;;3.00;;
21822;SDS011;11074;48.596;9.238;2022-07-10T03:16:44;4.25;;;3.10;;
21822;SDS011;11074;48.596;9.238;2022-07-10T03:19:09;5.13;;;3.67;;
21822;SDS011;11074;48.596;9.238;2022-07-10T03:21:35;5.03;;;3.83;;
21822;SDS011;11074;48.596;9.238;2022-07-10T03:24:01;5.00;;;3.90;;
21822;SDS011;11074;48.596;9.238;2022-07-10T03:26:27;7.63;;;5.70;;
21822;SDS011;11074;48.596;9.238;2022-07-10T03:28:54;7.60;;;5.22;;
21822;SDS011;11074;48.596;9.238;2022-07-10T03:31:21;6.97;;;6.00;;
21822;SDS011;11074;48.596;9.238;2022-07-10T03:33:47;8.55;;;5.97;;
21822;SDS011;11074;48.596;9.238;2022-07-10T03:36:13;8.95;;;6.63;;
21822;SDS011;11074;48.596;9.238;2022-07-10T03:38:39;9.32;;;6.15;;
21822;SDS011;11074;48.596;9.238;2022-07-10T03:41:06;5.82;;;4.55;;
21822;SDS011;11074;48.596;9.238;2022-07-10T03:43:31;6.15;;;5.03;;
21822;SDS011;11074;48.596;9.238;2022-07-10T03:45:57;8.77;;;6.25;;
21822;SDS011;11074;48.596;9.238;2022-07-10T03:48:24;8.43;;;6.32;;
21822;SDS011;11074;48.596;9.238;2022-07-10T03:50:50;6.97;;;5.60;;
21822;SDS011;11074;48.596;9.238;2022-07-10T03:53:19;5.30;;;4.65;;
21822;SDS011;11074;48.596;9.238;2022-07-10T03:55:45;6.35;;;4.72;;
21822;SDS011;11074;48.596;9.238;2022-07-10T03:58:11;7.32;;;4.82;;
21822;SDS011;11074;48.596;9.238;2022-07-10T04:00:37;10.02;;;5.60;;
21822;SDS011;11074;48.596;9.238;2022-07-10T04:03:06;8.10;;;5.47;;
21822;SDS011;11074;48.596;9.238;2022-07-10T04:05:33;8.90;;;5.45;;
21822;SDS011;11074;48.596;9.238;2022-07-10T04:08:00;5.72;;;5.13;;
21822;SDS011;11074;48.596;9.238;2022-07-10T04:10:28;6.88;;;5.03;;
21822;SDS011;11074;48.596;9.238;2022-07-10T04:12:56;5.15;;;4.13;;
21822;SDS011;11074;48.596;9.238;2022-07-10T04:15:22;8.73;;;5.28;;
21822;SDS011;11074;48.596;9.238;2022-07-10T04:17:49;5.68;;;4.30;;
21822;SDS011;11074;48.596;9.238;2022-07-10T04:20:16;6.35;;;4.05;;
21822;SDS011;11074;48.596;9.238;2022-07-10T04:22:43;6.15;;;4.40;;
21822;SDS011;11074;48.596;9.238;2022-07-10T04:25:10;4.82;;;4.28;;
21822;SDS011;11074;48.596;9.238;2022-07-10T04:27:36;5.43;;;4.57;;
21822;SDS011;11074;48.596;9.238;2022-07-10T04:30:03;7.20;;;4.95;;
21822;SDS011;11074;48.596;9.238;2022-07-10T04:32:31;7.20;;;5.07;;
21822;SDS011;11074;48.596;9.238;2022-07-10T04:34:57;6.25;;;4.53;;
21822;SDS011;11074;48.596;9.238;2022-07-10T04:37:24;7.30;;;5.35;;
21822;SDS011;11074;48.596;9.238;2022-07-10T04:39:50;5.63;;;4.70;;
21822;SDS011;11074;48.596;9.238;2022-07-10T04:42:15;8.30;;;5.32;;
21822;SDS011;11074;48.596;9.238;2022-07-10T04:44:41;5.00;;;4.50;;
21822;SDS011;11074;48.596;9.238;2022-07-10T04:47:07;6.07;;;4.70;;
21822;SDS011;11074;48.596;9.238;2022-07-10T04:49:39;7.82;;;5.13;;
21822;SDS011;11074;48.596;9.238;2022-07-10T04:52:04;6.35;;;5.03;;
21822;SDS011;11074;48.596;9.238;2022-07-10T04:54:31;5.80;;;4.70;;
21822;SDS011;11074;48.596;9.238;2022-07-10T04:56:57;6.13;;;5.05;;
21822;SDS011;11074;48.596;9.238;2022-07-10T04:59:22;5.80;;;4.45;;
21822;SDS011;11074;48.596;9.238;2022-07-10T05:01:48;7.85;;;5.30;;
21822;SDS011;11074;48.596;9.238;2022-07-10T05:04:14;5.75;;;4.85;;
21822;SDS011;11074;48.596;9.238;2022-07-10T05:06:40;7.28;;;4.80;;
21822;SDS011;11074;48.596;9.238;2022-07-10T05:09:06;7.10;;;4.47;;
21822;SDS011;11074;48.596;9.238;2022-07-10T05:11:31;7.03;;;4.93;;
21822;SDS011;11074;48.596;9.238;2022-07-10T05:13:59;8.00;;;5.10;;
21822;SDS011;11074;48.596;9.238;2022-07-10T05:16:25;5.05;;;4.53;;
21822;SDS011;11074;48.596;9.238;2022-07-10T05:18:51;5.38;;;4.38;;
21822;SDS011;11074;48.596;9.238;2022-07-10T05:21:16;11.45;;;4.97;;
21822;SDS011;11074;48.596;9.238;2022-07-10T05:23:42;7.18;;;4.50;;
21822;SDS011;11074;48.596;9.238;2022-07-10T05:26:08;7.30;;;4.07;;
21822;SDS011;11074;48.596;9.238;2022-07-10T05:28:33;6.15;;;3.95;;
21822;SDS011;11074;48.596;9.238;2022-07-10T05:30:59;5.53;;;3.53;;
21822;SDS011;11074;48.596;9.238;2022-07-10T05:33:25;6.55;;;3.35;;
21822;SDS011;11074;48.596;9.238;2022-07-10T05:35:54;6.15;;;4.38;;
21822;SDS011;11074;48.596;9.238;2022-07-10T05:38:20;6.22;;;3.80;;
21822;SDS011;11074;48.596;9.238;2022-07-10T05:40:46;4.13;;;3.72;;
21822;SDS011;11074;48.596;9.238;2022-07-10T05:43:13;4.80;;;3.25;;
21822;SDS011;11074;48.596;9.238;2022-07-10T05:45:39;4.35;;;2.97;;
21822;SDS011;11074;48.596;9.238;2022-07-10T05:48:05;6.35;;;3.30;;
21822;SDS011;11074;48.596;9.238;2022-07-10T05:50:31;5.35;;;3.00;;
21822;SDS011;11074;48.596;9.238;2022-07-10T05:52:58;4.43;;;2.80;;
21822;SDS011;11074;48.596;9.238;2022-07-10T05:55:23;11.02;;;3.22;;
21822;SDS011;11074;48.596;9.238;2022-07-10T05:57:49;4.55;;;2.78;;
21822;SDS011;11074;48.596;9.238;2022-07-10T06:00:19;5.65;;;3.20;;
21822;SDS011;11074;48.596;9.238;2022-07-10T06:02:45;6.45;;;2.85;;
21822;SDS011;11074;48.596;9.238;2022-07-10T06:05:11;6.25;;;2.70;;
21822;SDS011;11074;48.596;9.238;2022-07-10T06:07:36;4.63;;;3.17;;
21822;SDS011;11074;48.596;9.238;2022-07-10T06:10:03;4.60;;;3.38;;
21822;SDS011;11074;48.596;9.238;2022-07-10T06:12:30;6.03;;;2.88;;
21822;SDS011;11074;48.596;9.238;2022-07-10T06:15:01;5.50;;;3.03;;
21822;SDS011;11074;48.596;9.238;2022-07-10T06:17:27;3.08;;;2.45;;
21822;SDS011;11074;48.596;9.238;2022-07-10T06:19:52;4.55;;;2.80;;
21822;SDS011;11074;48.596;9.238;2022-07-10T06:22:19;4.80;;;2.67;;
21822;SDS011;11074;48.596;9.238;2022-07-10T06:25:01;4.63;;;2.20;;
21822;SDS011;11074;48.596;9.238;2022-07-10T06:27:34;7.03;;;2.30;;
21822;SDS011;11074;48.596;9.238;2022-07-10T06:30:01;4.53;;;2.10;;
21822;SDS011;11074;48.596;9.238;2022-07-10T06:32:29;10.02;;;2.50;;
21822;SDS011;11074;48.596;9.238;2022-07-10T06:34:55;4.75;;;2.35;;
21822;SDS011;11074;48.596;9.238;2022-07-10T06:37:21;5.35;;;2.15;;
21822;SDS011;11074;48.596;9.238;2022-07-10T06:39:47;2.95;;;2.40;;
21822;SDS011;11074;48.596;9.238;2022-07-10T06:42:13;4.90;;;2.25;;
21822;SDS011;11074;48.596;9.238;2022-07-10T06:44:43;3.95;;;2.00;;
21822;SDS011;11074;48.596;9.238;2022-07-10T06:47:10;3.60;;;1.85;;
21822;SDS011;11074;48.596;9.238;2022-07-10T06:49:57;5.60;;;2.00;;
21822;SDS011;11074;48.596;9.238;2022-07-10T06:52:23;5.53;;;1.80;;
21822;SDS011;11074;48.596;9.238;2022-07-10T06:54:49;3.47;;;1.70;;
21822;SDS011;11074;48.596;9.238;2022-07-10T06:57:16;3.10;;;1.70;;
21822;SDS011;11074;48.596;9.238;2022-07-10T06:59:43;3.97;;;1.63;;
21822;SDS011;11074;48.596;9.238;2022-07-10T07:02:09;6.10;;;1.88;;
21822;SDS011;11074;48.596;9.238;2022-07-10T07:04:35;2.67;;;1.50;;
21822;SDS011;11074;48.596;9.238;2022-07-10T07:07:01;3.50;;;1.65;;
21822;SDS011;11074;48.596;9.238;2022-07-10T07:09:28;4.07;;;1.65;;
21822;SDS011;11074;48.596;9.238;2022-07-10T07:11:54;3.45;;;1.50;;
21822;SDS011;11074;48.596;9.238;2022-07-10T07:14:20;4.70;;;1.60;;
21822;SDS011;11074;48.596;9.238;2022-07-10T07:16:46;5.95;;;1.67;;
21822;SDS011;11074;48.596;9.238;2022-07-10T07:19:22;3.40;;;1.55;;
21822;SDS011;11074;48.596;9.238;2022-07-10T07:21:56;4.97;;;1.70;;
21822;SDS011;11074;48.596;9.238;2022-07-10T07:24:43;4.45;;;1.73;;
21822;SDS011;11074;48.596;9.238;2022-07-10T07:27:10;3.75;;;1.70;;
21822;SDS011;11074;48.596;9.238;2022-07-10T07:29:37;2.67;;;1.40;;
21822;SDS011;11074;48.596;9.238;2022-07-10T07:32:03;6.97;;;1.90;;
21822;SDS011;11074;48.596;9.238;2022-07-10T07:34:29;22.80;;;2.20;;
21822;SDS011;11074;48.596;9.238;2022-07-10T07:36:56;3.08;;;1.92;;
21822;SDS011;11074;48.596;9.238;2022-07-10T07:39:23;2.83;;;1.85;;
21822;SDS011;11074;48.596;9.238;2022-07-10T07:41:49;2.83;;;1.45;;
21822;SDS011;11074;48.596;9.238;2022-07-10T07:44:15;3.83;;;1.50;;
21822;SDS011;11074;48.596;9.238;2022-07-10T07:46:42;6.30;;;1.50;;
21822;SDS011;11074;48.596;9.238;2022-07-10T07:49:09;4.90;;;1.65;;
21822;SDS011;11074;48.596;9.238;2022-07-10T07:51:35;4.05;;;1.40;;
21822;SDS011;11074;48.596;9.238;2022-07-10T07:54:00;3.28;;;1.63;;
21822;SDS011;11074;48.596;9.238;2022-07-10T07:56:26;3.42;;;1.40;;
21822;SDS011;11074;48.596;9.238;2022-07-10T07:58:52;3.80;;;1.80;;
21822;SDS011;11074;48.596;9.238;2022-07-10T08:01:17;5.30;;;1.55;;
21822;SDS011;11074;48.596;9.238;2022-07-10T08:03:44;3.35;;;1.60;;
21822;SDS011;11074;48.596;9.238;2022-07-10T08:06:10;4.70;;;1.40;;
21822;SDS011;11074;48.596;9.238;2022-07-10T08:08:36;5.13;;;1.63;;
21822;SDS011;11074;48.596;9.238;2022-07-10T08:11:03;7.15;;;1.52;;
21822;SDS011;11074;48.596;9.238;2022-07-10T08:13:29;4.88;;;1.42;;
21822;SDS011;11074;48.596;9.238;2022-07-10T08:15:57;3.45;;;1.48;;
21822;SDS011;11074;48.596;9.238;2022-07-10T08:18:23;3.30;;;1.55;;
21822;SDS011;11074;48.596;9.238;2022-07-10T08:20:49;4.55;;;1.85;;
21822;SDS011;11074;48.596;9.238;2022-07-10T08:23:15;4.00;;;1.30;;
21822;SDS011;11074;48.596;9.238;2022-07-10T08:25:41;4.38;;;1.77;;
21822;SDS011;11074;48.596;9.238;2022-07-10T08:28:07;3.70;;;1.30;;
21822;SDS011;11074;48.596;9.238;2022-07-10T08:30:35;2.53;;;1.38;;
21822;SDS011;11074;48.596;9.238;2022-07-10T08:33:01;3.53;;;1.50;;
21822;SDS011;11074;48.596;9.238;2022-07-10T08:35:26;3.13;;;1.30;;
21822;SDS011;11074;48.596;9.238;2022-07-10T08:37:52;3.33;;;1.70;;
21822;SDS011;11074;48.596;9.238;2022-07-10T08:40:19;3.25;;;1.63;;
21822;SDS011;11074;48.596;9.238;2022-07-10T08:42:47;2.95;;;1.58;;
21822;SDS011;11074;48.596;9.238;2022-07-10T08:45:13;2.75;;;1.40;;
21822;SDS011;11074;48.596;9.238;2022-07-10T08:47:40;5.65;;;1.42;;
21822;SDS011;11074;48.596;9.238;2022-07-10T08:55:34;2.67;;;1.55;;
21822;SDS011;11074;48.596;9.238;2022-07-10T08:58:02;3.38;;;1.50;;
21822;SDS011;11074;48.596;9.238;2022-07-10T09:00:31;4.80;;;1.67;;
21822;SDS011;11074;48.596;9.238;2022-07-10T09:03:00;2.65;;;1.60;;
21822;SDS011;11074;48.596;9.238;2022-07-10T09:05:27;4.65;;;1.77;;
21822;SDS011;11074;48.596;9.238;2022-07-10T09:07:54;3.40;;;1.58;;
21822;SDS011;11074;48.596;9.238;2022-07-10T09:10:23;6.53;;;1.70;;
21822;SDS011;11074;48.596;9.238;2022-07-10T09:15:19;3.72;;;1.50;;
21822;SDS011;11074;48.596;9.238;2022-07-10T09:17:55;5.07;;;1.67;;
21822;SDS011;11074;48.596;9.238;2022-07-10T09:20:24;5.50;;;1.52;;
21822;SDS011;11074;48.596;9.238;2022-07-10T09:22:56;2.75;;;1.50;;
21822;SDS011;11074;48.596;9.238;2022-07-10T09:25:35;2.42;;;1.38;;
21822;SDS011;11074;48.596;9.238;2022-07-10T09:28:01;3.45;;;1.63;;
21822;SDS011;11074;48.596;9.238;2022-07-10T09:30:34;4.97;;;1.52;;
21822;SDS011;11074;48.596;9.238;2022-07-10T09:33:14;4.93;;;1.40;;
21822;SDS011;11074;48.596;9.238;2022-07-10T09:41:29;2.88;;;1.50;;
21822;SDS011;11074;48.596;9.238;2022-07-10T09:44:00;1.98;;;1.33;;
21822;SDS011;11074;48.596;9.238;2022-07-10T09:46:35;3.00;;;1.40;;
21822;SDS011;11074;48.596;9.238;2022-07-10T09:49:08;5.03;;;1.85;;
21822;SDS011;11074;48.596;9.238;2022-07-10T09:54:11;2.70;;;1.20;;
21822;SDS011;11074;48.596;9.238;2022-07-10T09:59:16;2.55;;;1.25;;
21822;SDS011;11074;48.596;9.238;2022-07-10T10:04:11;2.78;;;1.20;;
21822;SDS011;11074;48.596;9.238;2022-07-10T10:06:39;3.22;;;1.20;;
21822;SDS011;11074;48.596;9.238;2022-07-10T10:09:12;2.92;;;1.38;;
21822;SDS011;11074;48.596;9.238;2022-07-10T10:11:47;3.40;;;1.30;;
21822;SDS011;11074;48.596;9.238;2022-07-10T10:14:21;2.25;;;1.30;;
21822;SDS011;11074;48.596;9.238;2022-07-10T10:16:48;5.20;;;1.60;;
21822;SDS011;11074;48.596;9.238;2022-07-10T10:19:18;3.15;;;1.60;;
21822;SDS011;11074;48.596;9.238;2022-07-10T10:22:03;4.57;;;1.67;;
21822;SDS011;11074;48.596;9.238;2022-07-10T10:24:31;5.72;;;2.20;;
21822;SDS011;11074;48.596;9.238;2022-07-10T10:26:58;2.38;;;1.35;;
21822;SDS011;11074;48.596;9.238;2022-07-10T10:29:26;2.15;;;1.30;;
21822;SDS011;11074;48.596;9.238;2022-07-10T10:31:53;3.72;;;1.33;;
21822;SDS011;11074;48.596;9.238;2022-07-10T10:39:53;2.13;;;1.25;;
21822;SDS011;11074;48.596;9.238;2022-07-10T10:42:39;2.08;;;1.38;;
21822;SDS011;11074;48.596;9.238;2022-07-10T10:45:24;6.00;;;1.05;;
21822;SDS011;11074;48.596;9.238;2022-07-10T10:48:07;2.58;;;1.48;;
21822;SDS011;11074;48.596;9.238;2022-07-10T10:53:13;3.17;;;1.20;;
21822;SDS011;11074;48.596;9.238;2022-07-10T10:58:35;2.88;;;1.10;;
21822;SDS011;11074;48.596;9.238;2022-07-10T11:06:38;3.15;;;1.30;;
21822;SDS011;11074;48.596;9.238;2022-07-10T11:09:24;2.88;;;1.85;;
21822;SDS011;11074;48.596;9.238;2022-07-10T11:11:59;2.67;;;1.15;;
21822;SDS011;11074;48.596;9.238;2022-07-10T11:14:41;3.83;;;1.20;;
21822;SDS011;11074;48.596;9.238;2022-07-10T11:17:13;3.83;;;1.42;;
21822;SDS011;11074;48.596;9.238;2022-07-10T11:19:39;5.55;;;1.60;;
21822;SDS011;11074;48.596;9.238;2022-07-10T11:25:45;3.22;;;1.15;;
21822;SDS011;11074;48.596;9.238;2022-07-10T11:28:32;5.85;;;1.40;;
21822;SDS011;11074;48.596;9.238;2022-07-10T11:31:27;4.32;;;1.42;;
21822;SDS011;11074;48.596;9.238;2022-07-10T11:33:56;3.55;;;1.40;;
21822;SDS011;11074;48.596;9.238;2022-07-10T11:36:25;3.85;;;1.38;;
21822;SDS011;11074;48.596;9.238;2022-07-10T11:39:01;2.65;;;1.10;;
21822;SDS011;11074;48.596;9.238;2022-07-10T11:41:33;3.15;;;1.30;;
21822;SDS011;11074;48.596;9.238;2022-07-10T11:44:06;1.83;;;1.38;;
21822;SDS011;11074;48.596;9.238;2022-07-10T11:46:38;3.90;;;1.10;;
21822;SDS011;11074;48.596;9.238;2022-07-10T11:49:05;2.70;;;0.95;;
21822;SDS011;11074;48.596;9.238;2022-07-10T11:51:35;3.22;;;1.10;;
21822;SDS011;11074;48.596;9.238;2022-07-10T11:54:08;3.35;;;1.30;;
21822;SDS011;11074;48.596;9.238;2022-07-10T11:56:37;2.40;;;1.17;;
21822;SDS011;11074;48.596;9.238;2022-07-10T11:59:09;2.25;;;1.20;;
21822;SDS011;11074;48.596;9.238;2022-07-10T12:01:41;2.78;;;1.23;;
21822;SDS011;11074;48.596;9.238;2022-07-10T12:04:09;2.45;;;1.27;;
21822;SDS011;11074;48.596;9.238;2022-07-10T12:06:40;3.15;;;1.13;;
21822;SDS011;11074;48.596;9.238;2022-07-10T12:09:15;3.58;;;1.20;;
21822;SDS011;11074;48.596;9.238;2022-07-10T12:11:44;6.15;;;1.70;;
21822;SDS011;11074;48.596;9.238;2022-07-10T12:14:23;3.75;;;1.10;;
21822;SDS011;11074;48.596;9.238;2022-07-10T12:16:50;2.20;;;1.15;;
21822;SDS011;11074;48.596;9.238;2022-07-10T12:19:20;2.60;;;1.20;;
21822;SDS011;11074;48.596;9.238;2022-07-10T12:21:53;3.85;;;1.30;;
21822;SDS011;11074;48.596;9.238;2022-07-10T12:24:19;4.72;;;1.20;;
21822;SDS011;11074;48.596;9.238;2022-07-10T12:26:46;5.47;;;1.30;;
21822;SDS011;11074;48.596;9.238;2022-07-10T12:31:46;2.75;;;1.13;;
21822;SDS011;11074;48.596;9.238;2022-07-10T12:34:14;3.72;;;1.48;;
21822;SDS011;11074;48.596;9.238;2022-07-10T12:39:22;4.00;;;1.13;;
21822;SDS011;11074;48.596;9.238;2022-07-10T12:41:56;4.75;;;1.20;;
21822;SDS011;11074;48.596;9.238;2022-07-10T12:47:14;3.28;;;1.00;;
21822;SDS011;11074;48.596;9.238;2022-07-10T12:50:08;2.55;;;1.30;;
21822;SDS011;11074;48.596;9.238;2022-07-10T12:52:34;3.05;;;1.00;;
21822;SDS011;11074;48.596;9.238;2022-07-10T12:57:57;2.38;;;0.80;;
21822;SDS011;11074;48.596;9.238;2022-07-10T13:00:33;5.05;;;1.08;;
21822;SDS011;11074;48.596;9.238;2022-07-10T13:03:08;3.80;;;0.82;;
21822;SDS011;11074;48.596;9.238;2022-07-10T13:05:36;3.42;;;0.90;;
21822;SDS011;11074;48.596;9.238;2022-07-10T13:08:05;1.35;;;0.70;;
21822;SDS011;11074;48.596;9.238;2022-07-10T13:10:45;3.92;;;0.90;;
21822;SDS011;11074;48.596;9.238;2022-07-10T13:13:21;2.88;;;1.08;;
21822;SDS011;11074;48.596;9.238;2022-07-10T13:15:54;5.22;;;0.85;;
21822;SDS011;11074;48.596;9.238;2022-07-10T13:18:25;2.33;;;0.70;;
21822;SDS011;11074;48.596;9.238;2022-07-10T13:20:58;1.38;;;0.60;;
21822;SDS011;11074;48.596;9.238;2022-07-10T13:23:27;2.33;;;0.57;;
21822;SDS011;11074;48.596;9.238;2022-07-10T13:25:53;4.05;;;1.02;;
21822;SDS011;11074;48.596;9.238;2022-07-10T13:28:20;3.38;;;0.77;;
21822;SDS011;11074;48.596;9.238;2022-07-10T13:30:47;2.63;;;0.70;;
21822;SDS011;11074;48.596;9.238;2022-07-10T13:33:13;2.88;;;0.70;;
21822;SDS011;11074;48.596;9.238;2022-07-10T13:35:39;1.95;;;0.80;;
21822;SDS011;11074;48.596;9.238;2022-07-10T13:38:06;2.08;;;0.77;;
21822;SDS011;11074;48.596;9.238;2022-07-10T13:40:33;1.40;;;0.80;;
21822;SDS011;11074;48.596;9.238;2022-07-10T13:43:02;2.60;;;0.60;;
21822;SDS011;11074;48.596;9.238;2022-07-10T13:45:28;1.52;;;0.70;;
21822;SDS011;11074;48.596;9.238;2022-07-10T13:48:01;1.70;;;0.60;;
21822;SDS011;11074;48.596;9.238;2022-07-10T13:50:29;2.10;;;0.60;;
21822;SDS011;11074;48.596;9.238;2022-07-10T13:52:54;2.33;;;0.52;;
21822;SDS011;11074;48.596;9.238;2022-07-10T13:55:20;1.50;;;0.60;;
21822;SDS011;11074;48.596;9.238;2022-07-10T13:57:46;2.22;;;0.63;;
21822;SDS011;11074;48.596;9.238;2022-07-10T14:00:12;2.88;;;0.80;;
21822;SDS011;11074;48.596;9.238;2022-07-10T14:02:38;1.85;;;0.60;;
21822;SDS011;11074;48.596;9.238;2022-07-10T14:05:10;2.90;;;0.60;;
21822;SDS011;11074;48.596;9.238;2022-07-10T14:07:36;1.77;;;0.60;;
21822;SDS011;11074;48.596;9.238;2022-07-10T14:10:02;2.63;;;0.93;;
21822;SDS011;11074;48.596;9.238;2022-07-10T14:12:29;2.97;;;0.70;;
21822;SDS011;11074;48.596;9.238;2022-07-10T14:14:57;2.47;;;0.60;;
21822;SDS011;11074;48.596;9.238;2022-07-10T14:17:23;2.33;;;0.68;;
21822;SDS011;11074;48.596;9.238;2022-07-10T14:19:49;2.22;;;0.70;;
21822;SDS011;11074;48.596;9.238;2022-07-10T14:22:15;2.13;;;0.70;;
21822;SDS011;11074;48.596;9.238;2022-07-10T14:24:41;2.45;;;0.63;;
21822;SDS011;11074;48.596;9.238;2022-07-10T14:27:07;1.83;;;0.57;;
21822;SDS011;11074;48.596;9.238;2022-07-10T14:29:33;1.98;;;0.65;;
21822;SDS011;11074;48.596;9.238;2022-07-10T14:31:59;2.10;;;0.60;;
21822;SDS011;11074;48.596;9.238;2022-07-10T14:34:26;2.10;;;0.50;;
21822;SDS011;11074;48.596;9.238;2022-07-10T14:36:54;2.35;;;0.52;;
21822;SDS011;11074;48.596;9.238;2022-07-10T14:39:20;3.00;;;0.65;;
21822;SDS011;11074;48.596;9.238;2022-07-10T14:41:46;3.13;;;0.90;;
21822;SDS011;11074;48.596;9.238;2022-07-10T14:44:12;2.97;;;0.88;;
21822;SDS011;11074;48.596;9.238;2022-07-10T14:46:37;3.10;;;0.80;;
21822;SDS011;11074;48.596;9.238;2022-07-10T14:49:03;3.63;;;0.70;;
21822;SDS011;11074;48.596;9.238;2022-07-10T14:51:29;3.22;;;0.60;;
21822;SDS011;11074;48.596;9.238;2022-07-10T14:53:55;2.63;;;0.75;;
21822;SDS011;11074;48.596;9.238;2022-07-10T14:56:21;2.15;;;0.60;;
21822;SDS011;11074;48.596;9.238;2022-07-10T14:58:48;1.63;;;0.63;;
21822;SDS011;11074;48.596;9.238;2022-07-10T15:01:14;2.88;;;0.80;;
21822;SDS011;11074;48.596;9.238;2022-07-10T15:03:41;1.73;;;0.68;;
21822;SDS011;11074;48.596;9.238;2022-07-10T15:06:07;3.55;;;0.95;;
21822;SDS011;11074;48.596;9.238;2022-07-10T15:08:33;2.75;;;0.60;;
21822;SDS011;11074;48.596;9.238;2022-07-10T15:10:59;2.72;;;0.70;;
21822;SDS011;11074;48.596;9.238;2022-07-10T15:13:26;1.70;;;0.60;;
21822;SDS011;11074;48.596;9.238;2022-07-10T15:15:52;2.83;;;0.60;;
21822;SDS011;11074;48.596;9.238;2022-07-10T15:18:18;4.80;;;0.80;;
21822;SDS011;11074;48.596;9.238;2022-07-10T15:20:45;1.75;;;0.60;;
21822;SDS011;11074;48.596;9.238;2022-07-10T15:23:11;2.38;;;0.60;;
21822;SDS011;11074;48.596;9.238;2022-07-10T15:25:38;3.05;;;0.70;;
21822;SDS011;11074;48.596;9.238;2022-07-10T15:28:07;1.80;;;0.60;;
21822;SDS011;11074;48.596;9.238;2022-07-10T15:30:35;2.88;;;0.70;;
21822;SDS011;11074;48.596;9.238;2022-07-10T15:33:03;2.72;;;0.60;;
21822;SDS011;11074;48.596;9.238;2022-07-10T15:35:30;1.55;;;0.73;;
21822;SDS011;11074;48.596;9.238;2022-07-10T15:37:57;3.80;;;0.88;;
21822;SDS011;11074;48.596;9.238;2022-07-10T15:40:27;0.60;;;0.35;;
21822;SDS011;11074;48.596;9.238;2022-07-10T15:42:54;1.77;;;0.70;;
21822;SDS011;11074;48.596;9.238;2022-07-10T15:45:24;2.15;;;0.80;;